Time;durP1;ratioP1;P1;durP2;ratioP2;P2;SDS_P1;SDS_P2;PMS_P1;PMS_P2;Temp;Humidity;BMP_temperature;BMP_pressure;BME280_temperature;BME280_humidity;BME280_pressure;Samples;Min_cycle;Max_cycle;Signal;HPM_P1;HPM_P2
2022/08/28 00:01:30;;;;;;;2.30;2.10;;;;;;;25.09;42.53;100667.75;5078495;28;20032;-78
2022/08/28 00:03:56;;;;;;;1.95;1.83;;;;;;;25.11;42.26;100664.72;5076978;28;20032;-77
2022/08/28 00:06:22;;;;;;;1.77;1.67;;;;;;;25.09;42.46;100662.28;5068999;28;20029;-77
2022/08/28 00:08:47;;;;;;;1.80;1.70;;;;;;;25.10;42.33;100666.63;5087483;28;20036;-78
2022/08/28 00:11:13;;;;;;;1.85;1.75;;;;;;;25.10;42.33;100666.63;5087775;28;20024;-78
2022/08/28 00:13:38;;;;;;;1.60;1.50;;;;;;;25.09;42.11;100662.28;5069568;28;20078;-78
2022/08/28 00:16:04;;;;;;;1.83;1.73;;;;;;;25.11;42.26;100664.72;5087128;28;20040;-77
2022/08/28 00:18:30;;;;;;;2.03;1.85;;;;;;;25.10;42.22;100658.44;5066827;28;20044;-78
2022/08/28 00:20:56;;;;;;;1.80;1.70;;;;;;;25.11;42.09;100661.97;5076962;28;20116;-77
2022/08/28 00:23:21;;;;;;;1.60;1.50;;;;;;;25.09;42.03;100658.72;5077359;28;20108;-77
2022/08/28 00:25:47;;;;;;;1.63;1.52;;;;;;;25.09;41.92;100659.53;5076259;28;20459;-77
2022/08/28 00:28:14;;;;;;;1.90;1.80;;;;;;;25.10;42.18;100657.63;5075767;28;20028;-77
2022/08/28 00:30:50;;;;;;;1.67;1.58;;;;;;;25.09;42.02;100655.97;5075951;28;20463;-77
2022/08/28 00:33:16;;;;;;;1.90;1.80;;;;;;;25.10;41.92;100663.09;5075772;28;20024;-77
2022/08/28 00:35:42;;;;;;;1.80;1.70;;;;;;;25.08;41.93;100654.34;5075520;28;20064;-77
2022/08/28 00:38:08;;;;;;;1.60;1.50;;;;;;;25.08;42.32;100657.91;5075920;28;20025;-77
2022/08/28 00:40:34;;;;;;;1.90;1.80;;;;;;;25.09;42.24;100654.06;5075402;28;20037;-77
2022/08/28 00:43:03;;;;;;;1.85;1.75;;;;;;;25.08;42.23;100659.81;5075905;28;20040;-77
2022/08/28 00:45:29;;;;;;;1.80;1.70;;;;;;;25.09;42.32;100655.97;5075850;28;20070;-77
2022/08/28 00:47:55;;;;;;;1.70;1.60;;;;;;;25.10;42.33;100663.09;5057902;28;20024;-77
2022/08/28 00:50:23;;;;;;;1.98;1.63;;;;;;;25.09;42.00;100664.19;5075379;28;20043;-77
2022/08/28 00:52:51;;;;;;;2.03;1.92;;;;;;;25.09;42.17;100669.66;5057688;28;20032;-77
2022/08/28 00:55:21;;;;;;;1.60;1.50;;;;;;;25.09;41.99;100661.44;5041179;28;20127;-78
2022/08/28 00:57:55;;;;;;;1.70;1.60;;;;;;;25.09;41.98;100656.81;5075149;28;20028;-78
2022/08/28 01:00:34;;;;;;;1.80;1.70;;;;;;;25.11;42.14;100665.56;5040814;28;20021;-78
2022/08/28 01:03:00;;;;;;;1.80;1.70;;;;;;;25.10;42.13;100671.28;5075169;28;20419;-78
2022/08/28 01:05:25;;;;;;;1.85;1.75;;;;;;;25.09;42.16;100666.91;5075080;28;20039;-78
2022/08/28 01:07:51;;;;;;;1.90;1.80;;;;;;;25.11;42.09;100667.44;5056846;28;20032;-78
2022/08/28 01:10:19;;;;;;;1.67;1.58;;;;;;;25.09;42.39;100666.91;5074725;28;20090;-78
2022/08/28 01:12:44;;;;;;;1.70;1.60;;;;;;;25.11;42.11;100664.72;5057283;28;20047;-78
2022/08/28 01:15:11;;;;;;;1.63;1.52;;;;;;;25.09;42.34;100664.19;5040262;28;20479;-78
2022/08/28 01:17:39;;;;;;;1.55;1.45;;;;;;;25.08;42.41;100660.63;5040958;28;20035;-78
2022/08/28 01:20:10;;;;;;;1.85;1.75;;;;;;;25.09;42.42;100659.53;5040454;28;20049;-77
2022/08/28 01:22:38;;;;;;;1.60;1.50;;;;;;;25.08;42.16;100662.56;5074908;28;20043;-77
2022/08/28 01:25:10;;;;;;;1.80;1.70;;;;;;;25.08;42.19;100665.28;5040493;28;20028;-77
2022/08/28 01:27:35;;;;;;;1.60;1.50;;;;;;;25.11;42.21;100656.50;5074717;28;20063;-77
2022/08/28 01:30:05;;;;;;;1.67;1.58;;;;;;;25.09;42.05;100655.97;5057232;28;20036;-77
2022/08/28 01:32:39;;;;;;;1.65;1.55;;;;;;;25.11;42.25;100653.78;5074857;28;20028;-77
2022/08/28 01:35:08;;;;;;;1.63;1.52;;;;;;;25.10;42.11;100649.41;5074557;28;20048;-77
2022/08/28 01:37:34;;;;;;;1.67;1.58;;;;;;;25.09;42.43;100655.97;5074987;28;20067;-77
2022/08/28 01:40:00;;;;;;;1.52;1.42;;;;;;;25.10;42.25;100655.69;5074936;28;20070;-77
2022/08/28 01:42:25;;;;;;;1.73;1.63;;;;;;;25.09;42.37;100648.59;5074505;28;20384;-77
2022/08/28 01:44:52;;;;;;;1.70;1.60;;;;;;;25.07;42.13;100648.03;5074923;28;20433;-77
2022/08/28 01:47:18;;;;;;;1.75;1.65;;;;;;;25.10;42.45;100658.44;5074305;28;20035;-77
2022/08/28 01:49:44;;;;;;;1.77;1.67;;;;;;;25.09;42.31;100647.78;5074461;28;20029;-77
2022/08/28 01:52:09;;;;;;;1.70;1.60;;;;;;;25.10;42.18;100644.75;5074568;28;20028;-77
2022/08/28 01:54:35;;;;;;;1.30;1.20;;;;;;;25.09;42.29;100640.41;5074648;28;20029;-77
2022/08/28 01:57:00;;;;;;;1.70;1.60;;;;;;;25.11;42.42;100642.84;5074289;28;20040;-77
2022/08/28 01:59:26;;;;;;;1.50;1.40;;;;;;;25.08;42.50;100633.28;5074479;28;20070;-77
2022/08/28 02:01:52;;;;;;;1.52;1.42;;;;;;;25.10;42.36;100635.75;5074656;28;20031;-77
2022/08/28 02:04:18;;;;;;;1.85;1.75;;;;;;;25.11;42.08;100640.09;5074409;28;20021;-77
2022/08/28 02:06:43;;;;;;;1.52;1.42;;;;;;;25.10;42.29;100633.00;5074232;28;20099;-77
2022/08/28 02:09:10;;;;;;;1.60;1.50;;;;;;;25.08;42.31;100632.47;5074662;28;20309;-77
2022/08/28 02:11:39;;;;;;;1.50;1.40;;;;;;;25.10;42.35;100638.47;5076033;28;20036;-77
2022/08/28 02:14:05;;;;;;;1.80;1.70;;;;;;;25.09;42.24;100645.03;5027461;28;20536;-77
2022/08/28 02:16:30;;;;;;;1.60;1.50;;;;;;;25.11;42.02;100642.84;5078708;28;20044;-78
2022/08/28 02:18:56;;;;;;;1.70;1.60;;;;;;;25.11;42.11;100640.09;5077848;28;20116;-78
2022/08/28 02:21:21;;;;;;;1.40;1.30;;;;;;;25.11;42.12;100631.91;5078015;28;20099;-78
2022/08/28 02:23:47;;;;;;;1.70;1.60;;;;;;;25.10;42.24;100633.81;5078603;28;20072;-78
2022/08/28 02:26:13;;;;;;;1.58;1.48;;;;;;;25.10;42.28;100631.09;5078563;28;20151;-78
2022/08/28 02:28:39;;;;;;;1.50;1.40;;;;;;;25.09;42.16;100632.19;5060381;28;20040;-78
2022/08/28 02:31:08;;;;;;;1.77;1.30;;;;;;;25.07;42.00;100623.44;5078057;28;20052;-78
2022/08/28 02:33:38;;;;;;;1.65;1.55;;;;;;;25.07;41.99;100628.09;5078073;28;20036;-79
2022/08/28 02:36:06;;;;;;;1.73;1.63;;;;;;;25.08;42.20;100625.09;5058215;28;20072;-78
2022/08/28 02:38:32;;;;;;;1.70;1.60;;;;;;;25.08;42.02;100622.34;5058124;28;20025;-78
2022/08/28 02:40:57;;;;;;;1.63;1.52;;;;;;;25.08;41.89;100622.34;5058160;28;20048;-78
2022/08/28 02:43:23;;;;;;;1.60;1.50;;;;;;;25.08;41.83;100624.28;5058113;28;20039;-78
2022/08/28 02:45:48;;;;;;;1.67;1.58;;;;;;;25.09;41.99;100629.47;5058486;28;20032;-78
2022/08/28 02:48:14;;;;;;;1.80;1.70;;;;;;;25.07;41.80;100628.09;5058711;28;20045;-77
2022/08/28 02:50:39;;;;;;;1.40;1.30;;;;;;;25.07;41.88;100625.34;5058724;28;20482;-78
2022/08/28 02:53:05;;;;;;;1.70;1.60;;;;;;;25.08;42.12;100618.81;5058990;28;20029;-78
2022/08/28 02:55:30;;;;;;;1.80;1.70;;;;;;;25.08;41.95;100616.06;5058335;28;20040;-78
2022/08/28 02:57:56;;;;;;;1.50;1.40;;;;;;;25.04;41.95;100609.50;5057833;28;20025;-78
2022/08/28 03:00:23;;;;;;;1.70;1.60;;;;;;;25.05;41.87;100602.94;5057299;28;20501;-78
2022/08/28 03:02:48;;;;;;;1.48;1.38;;;;;;;25.06;41.60;100596.38;5056844;28;20025;-78
2022/08/28 03:05:15;;;;;;;1.63;1.52;;;;;;;25.07;41.66;100604.28;5057444;28;20151;-78
2022/08/28 03:07:41;;;;;;;1.40;1.30;;;;;;;25.06;41.74;100601.84;5057600;28;20404;-78
2022/08/28 03:10:07;;;;;;;1.40;1.30;;;;;;;25.08;41.68;100608.69;5057244;28;20100;-78
2022/08/28 03:12:33;;;;;;;1.60;1.50;;;;;;;25.04;41.93;100606.78;5057485;28;20482;-78
2022/08/28 03:14:58;;;;;;;1.42;1.33;;;;;;;25.04;41.85;100606.78;5056868;28;20029;-78
2022/08/28 03:17:24;;;;;;;1.33;1.23;;;;;;;25.07;41.86;100606.22;5039233;28;20044;-77
2022/08/28 03:19:50;;;;;;;1.60;1.50;;;;;;;25.07;41.76;100611.69;5056892;28;20025;-77
2022/08/28 03:23:24;;;;;;;1.80;1.70;;;;;;;25.07;41.97;100614.41;5056802;28;20029;-77
2022/08/28 03:25:07;;;;;;;1.52;1.42;;;;;;;25.08;41.62;100605.13;5041801;28;20029;-77
2022/08/28 03:27:33;;;;;;;1.45;1.35;;;;;;;25.07;41.91;100600.75;5057048;28;20032;-77
2022/08/28 03:29:58;;;;;;;1.60;1.50;;;;;;;25.05;41.91;100600.22;5039007;28;20498;-77
2022/08/28 03:32:25;;;;;;;1.40;1.30;;;;;;;25.06;41.65;100590.91;5056413;28;20033;-77
2022/08/28 03:34:52;;;;;;;1.60;1.50;;;;;;;25.06;41.73;100588.16;5067375;28;20048;-77
2022/08/28 03:37:18;;;;;;;1.60;1.50;;;;;;;25.05;41.83;100594.75;5076661;28;20066;-77
2022/08/28 03:39:43;;;;;;;1.45;1.35;;;;;;;25.05;41.70;100592.00;5076981;28;20028;-77
2022/08/28 03:42:09;;;;;;;1.65;1.55;;;;;;;25.05;41.72;100592.00;5079886;28;20051;-77
2022/08/28 03:44:36;;;;;;;1.50;1.40;;;;;;;25.05;41.52;100589.28;5080805;28;20020;-77
2022/08/28 03:47:02;;;;;;;1.48;1.38;;;;;;;25.05;41.78;100584.63;5082321;28;20115;-77
2022/08/28 03:49:28;;;;;;;1.60;1.35;;;;;;;25.07;41.73;100581.59;5064841;28;20052;-77
2022/08/28 03:51:53;;;;;;;1.42;1.33;;;;;;;25.05;41.56;100578.34;5088887;28;20055;-77
2022/08/28 03:54:19;;;;;;;1.58;1.48;;;;;;;25.03;41.67;100581.34;5053595;28;20033;-77
2022/08/28 03:56:44;;;;;;;1.35;1.25;;;;;;;25.03;41.88;100586.81;5077601;28;20032;-77
2022/08/28 03:59:10;;;;;;;1.48;1.38;;;;;;;25.06;41.73;100585.44;5076337;28;20029;-77
2022/08/28 04:01:37;;;;;;;1.40;1.30;;;;;;;25.05;41.53;100589.28;5074051;28;20024;-77
2022/08/28 04:04:03;;;;;;;1.60;1.50;;;;;;;25.04;41.91;100593.09;5076780;28;20092;-77
2022/08/28 04:06:29;;;;;;;1.50;1.40;;;;;;;25.04;41.65;100590.38;5076019;28;20044;-77
2022/08/28 04:08:54;;;;;;;1.48;1.38;;;;;;;25.01;41.76;100588.19;5075121;28;20385;-77
2022/08/28 04:11:20;;;;;;;1.40;1.30;;;;;;;25.04;41.85;100583.00;5075243;28;20025;-77
2022/08/28 04:13:46;;;;;;;1.60;1.50;;;;;;;25.02;42.05;100585.19;5057447;28;20036;-77
2022/08/28 04:16:12;;;;;;;1.50;1.40;;;;;;;25.05;42.00;100581.06;5075555;28;20025;-77
2022/08/28 04:18:39;;;;;;;1.67;1.58;;;;;;;25.05;42.08;100586.53;5075378;28;20035;-77
2022/08/28 04:21:09;;;;;;;1.63;1.52;;;;;;;25.05;41.79;100590.09;5058045;28;20407;-77
2022/08/28 04:23:36;;;;;;;1.50;1.40;;;;;;;25.03;42.27;100589.56;5057881;28;20047;-77
2022/08/28 04:26:06;;;;;;;1.80;1.70;;;;;;;25.04;42.06;100595.84;5075472;28;20052;-77
2022/08/28 04:28:31;;;;;;;1.55;1.45;;;;;;;25.04;41.94;100595.84;5074794;28;20108;-77
2022/08/28 04:30:57;;;;;;;1.50;1.40;;;;;;;25.06;41.94;100596.38;5074658;28;20040;-77
2022/08/28 04:33:23;;;;;;;1.60;1.50;;;;;;;25.03;42.14;100592.28;5074730;28;20020;-77
2022/08/28 04:35:48;;;;;;;1.45;1.35;;;;;;;25.04;42.25;100588.47;5074576;28;20502;-77
2022/08/28 04:38:14;;;;;;;1.50;1.40;;;;;;;25.05;42.40;100581.06;5074470;28;20020;-77
2022/08/28 04:40:40;;;;;;;1.63;1.52;;;;;;;25.04;42.40;100583.00;5074960;28;20021;-77
2022/08/28 04:43:05;;;;;;;1.90;1.67;;;;;;;25.06;42.26;100588.16;5040127;28;20032;-77
2022/08/28 04:45:31;;;;;;;1.50;1.40;;;;;;;25.03;42.28;100580.53;5074568;28;20032;-77
2022/08/28 04:47:57;;;;;;;1.40;1.30;;;;;;;25.07;42.48;100584.34;5074431;28;20027;-77
2022/08/28 04:50:22;;;;;;;1.50;1.40;;;;;;;25.05;42.39;100584.63;5074503;28;20463;-77
2022/08/28 04:52:49;;;;;;;1.70;1.60;;;;;;;25.05;42.84;100579.16;5056905;28;20065;-77
2022/08/28 04:55:15;;;;;;;1.70;1.60;;;;;;;25.07;42.38;100570.66;5074440;28;20025;-77
2022/08/28 04:57:40;;;;;;;1.63;1.52;;;;;;;25.08;42.68;100572.31;5074721;28;20024;-77
2022/08/28 05:00:07;;;;;;;1.90;1.80;;;;;;;25.05;42.53;100564.66;5074051;28;20429;-78
2022/08/28 05:02:33;;;;;;;1.70;1.60;;;;;;;25.07;42.78;100574.22;5074091;28;20036;-77
2022/08/28 05:04:58;;;;;;;1.50;1.40;;;;;;;25.09;42.99;100573.94;5074223;28;20024;-77
2022/08/28 05:07:24;;;;;;;1.70;1.60;;;;;;;25.09;42.95;100579.41;5074544;28;20035;-77
2022/08/28 05:09:52;;;;;;;1.80;1.70;;;;;;;25.09;43.10;100574.78;5074543;28;20028;-77
2022/08/28 05:12:18;;;;;;;1.67;1.58;;;;;;;25.10;43.05;100584.59;5073934;28;20356;-77
2022/08/28 05:14:44;;;;;;;1.90;1.70;;;;;;;25.10;43.21;100578.31;5074184;28;20036;-77
2022/08/28 05:17:11;;;;;;;1.60;1.50;;;;;;;25.07;43.21;100579.69;5056486;28;20032;-77
2022/08/28 05:19:36;;;;;;;1.73;1.63;;;;;;;25.07;43.35;100584.34;5074209;28;20059;-77
2022/08/28 05:22:02;;;;;;;1.70;1.60;;;;;;;25.09;43.38;100588.44;5073890;28;20382;-77
2022/08/28 05:24:27;;;;;;;1.75;1.65;;;;;;;25.11;43.24;100582.69;5073934;28;20024;-77
2022/08/28 05:26:53;;;;;;;1.83;1.73;;;;;;;25.10;43.76;100579.13;5073708;28;20378;-77
2022/08/28 05:29:18;;;;;;;1.73;1.63;;;;;;;25.12;43.58;100578.84;5073827;28;20078;-77
2022/08/28 05:31:44;;;;;;;1.65;1.55;;;;;;;25.07;43.77;100576.94;5055893;28;20017;-77
2022/08/28 05:34:10;;;;;;;1.52;1.42;;;;;;;25.08;43.92;100575.06;5073504;28;20127;-77
2022/08/28 05:36:36;;;;;;;1.50;1.40;;;;;;;25.07;44.03;100570.66;5073866;28;20024;-77
2022/08/28 05:39:05;;;;;;;1.60;1.50;;;;;;;25.08;44.22;100572.31;5073685;28;20047;-77
2022/08/28 05:41:34;;;;;;;1.80;1.70;;;;;;;25.10;44.26;100570.13;5073635;28;20025;-77
2022/08/28 05:44:04;;;;;;;1.70;1.60;;;;;;;25.09;43.97;100560.25;5073720;28;20075;-77
2022/08/28 05:46:30;;;;;;;1.98;1.83;;;;;;;25.08;44.22;100567.66;5055478;28;20059;-77
2022/08/28 05:48:56;;;;;;;1.80;1.70;;;;;;;25.09;44.17;100563.00;5073796;28;20134;-77
2022/08/28 05:51:25;;;;;;;1.67;1.58;;;;;;;25.09;44.09;100571.19;5073556;28;20016;-77
2022/08/28 05:53:50;;;;;;;2.00;1.90;;;;;;;25.07;44.45;100571.47;5073343;28;20103;-77
2022/08/28 05:56:18;;;;;;;1.52;1.42;;;;;;;25.08;44.51;100575.06;5055408;28;20442;-77
2022/08/28 05:58:44;;;;;;;1.70;1.60;;;;;;;25.09;44.86;100576.69;5073202;28;20029;-77
2022/08/28 06:01:10;;;;;;;1.50;1.40;;;;;;;25.07;44.84;100571.47;5073155;28;20078;-77
2022/08/28 06:03:36;;;;;;;1.60;1.50;;;;;;;25.09;45.10;100573.94;5073535;28;20383;-77
2022/08/28 06:06:02;;;;;;;1.67;1.58;;;;;;;25.08;44.87;100561.38;5073432;28;20025;-78
2022/08/28 06:08:28;;;;;;;1.83;1.73;;;;;;;25.10;44.86;100551.78;5073084;28;20439;-78
2022/08/28 06:10:54;;;;;;;1.67;1.58;;;;;;;25.12;45.24;100551.50;5072944;28;20029;-78
2022/08/28 06:13:20;;;;;;;1.75;1.65;;;;;;;25.11;45.46;100549.88;5073393;28;20029;-78
2022/08/28 06:15:46;;;;;;;1.70;1.60;;;;;;;25.10;45.40;100550.97;5073545;28;20472;-78
2022/08/28 06:18:12;;;;;;;1.50;1.40;;;;;;;25.05;45.42;100553.72;5072864;28;20043;-78
2022/08/28 06:20:43;;;;;;;1.70;1.60;;;;;;;25.05;45.76;100561.94;5073209;28;20029;-78
2022/08/28 06:23:09;;;;;;;1.90;1.80;;;;;;;25.07;45.73;100560.53;5073371;28;20059;-78
2022/08/28 06:25:45;;;;;;;1.90;1.80;;;;;;;25.04;45.92;100552.09;5072871;28;20031;-78
2022/08/28 06:28:11;;;;;;;1.67;1.58;;;;;;;25.01;46.03;100555.38;5073121;28;20029;-78
2022/08/28 06:30:37;;;;;;;1.75;1.65;;;;;;;24.98;46.79;100558.69;5072969;28;20031;-78
2022/08/28 06:33:03;;;;;;;1.70;1.60;;;;;;;25.00;46.37;100540.09;5073056;28;20111;-78
2022/08/28 06:35:30;;;;;;;1.60;1.50;;;;;;;25.02;46.71;100544.16;5072852;28;20067;-78
2022/08/28 06:37:56;;;;;;;1.70;1.60;;;;;;;25.03;46.72;100545.00;5073181;28;20029;-78
2022/08/28 06:40:22;;;;;;;1.85;1.75;;;;;;;25.00;47.06;100542.81;5073314;28;20028;-78
2022/08/28 06:42:47;;;;;;;2.20;2.00;;;;;;;25.02;46.86;100551.56;5073169;28;20017;-78
2022/08/28 06:45:12;;;;;;;1.95;1.85;;;;;;;24.98;47.36;100566.91;5073308;28;20021;-78
2022/08/28 06:47:38;;;;;;;1.77;1.67;;;;;;;25.06;47.58;100547.16;5072831;28;20368;-78
2022/08/28 06:50:04;;;;;;;2.17;1.80;;;;;;;25.06;47.03;100549.88;5072893;28;20094;-77
2022/08/28 06:52:29;;;;;;;1.80;1.70;;;;;;;25.10;47.66;100553.72;5073750;28;20040;-77
2022/08/28 06:54:55;;;;;;;1.75;1.65;;;;;;;25.13;47.48;100550.41;5073035;28;20411;-78
2022/08/28 06:57:21;;;;;;;1.80;1.70;;;;;;;25.10;47.85;100548.25;5073111;28;20087;-78
2022/08/28 06:59:48;;;;;;;1.77;1.67;;;;;;;25.10;47.74;100556.44;5075865;28;20463;-78
2022/08/28 07:02:13;;;;;;;1.67;1.58;;;;;;;25.12;47.45;100559.72;5076522;28;20387;-78
2022/08/28 07:04:39;;;;;;;1.60;1.50;;;;;;;25.10;47.92;100548.25;5076926;28;20020;-77
2022/08/28 07:07:05;;;;;;;2.00;1.90;;;;;;;25.11;47.70;100552.59;5076376;28;20478;-78
2022/08/28 07:09:30;;;;;;;1.77;1.67;;;;;;;25.14;48.02;100554.78;5076709;28;20028;-78
2022/08/28 07:11:56;;;;;;;1.80;1.70;;;;;;;25.14;47.68;100546.56;5077048;28;20505;-78
2022/08/28 07:14:22;;;;;;;1.80;1.70;;;;;;;25.13;47.98;100547.69;5076411;28;20028;-78
2022/08/28 07:16:47;;;;;;;1.90;1.80;;;;;;;25.05;47.82;100551.81;5076581;28;20044;-78
2022/08/28 07:19:13;;;;;;;1.63;1.52;;;;;;;25.10;48.19;100545.50;5076874;28;20039;-78
2022/08/28 07:21:40;;;;;;;1.83;1.73;;;;;;;25.10;47.98;100545.50;5077227;28;20459;-78
2022/08/28 07:24:07;;;;;;;1.90;1.80;;;;;;;25.04;48.74;100543.88;5076843;28;20047;-77
2022/08/28 07:26:32;;;;;;;1.80;1.70;;;;;;;25.01;48.38;100539.81;5077164;28;20099;-77
2022/08/28 07:28:58;;;;;;;1.70;1.60;;;;;;;25.00;48.16;100546.38;5076637;28;20437;-77
2022/08/28 07:31:25;;;;;;;1.83;1.73;;;;;;;24.98;48.92;100553.22;5076320;28;20040;-77
2022/08/28 07:33:51;;;;;;;1.95;1.85;;;;;;;25.00;48.68;100560.03;5075906;28;20035;-77
2022/08/28 07:36:18;;;;;;;1.92;1.83;;;;;;;24.96;48.52;100563.59;5076215;28;20032;-77
2022/08/28 07:38:44;;;;;;;1.90;1.80;;;;;;;24.92;48.79;100563.34;5075436;28;20028;-77
2022/08/28 07:41:18;;;;;;;2.00;1.90;;;;;;;25.02;48.72;100567.97;5075837;28;20027;-77
2022/08/28 07:46:28;;;;;;;2.20;2.10;;;;;;;25.07;48.83;100566.00;5076214;28;20035;-77
2022/08/28 07:48:53;;;;;;;2.53;2.33;;;;;;;25.05;48.65;100564.66;5076244;28;20103;-78
2022/08/28 07:51:19;;;;;;;2.15;2.05;;;;;;;25.03;48.88;100562.22;5080168;28;20046;-78
2022/08/28 07:53:44;;;;;;;2.10;2.00;;;;;;;25.07;49.12;100559.75;5081116;28;20124;-78
2022/08/28 07:56:10;;;;;;;2.45;2.25;;;;;;;24.98;48.88;100562.25;5081755;28;20016;-78
2022/08/28 07:58:37;;;;;;;2.60;2.40;;;;;;;25.08;49.03;100564.13;5084475;28;20104;-78
2022/08/28 08:01:03;;;;;;;2.60;2.40;;;;;;;25.01;49.62;100566.31;5090844;28;20099;-78
2022/08/28 08:03:30;;;;;;;2.10;2.00;;;;;;;25.04;49.28;100560.28;5083640;28;20058;-78
2022/08/28 08:05:57;;;;;;;2.47;2.20;;;;;;;25.06;49.31;100558.94;5075867;28;20028;-78
2022/08/28 08:08:22;;;;;;;2.60;2.40;;;;;;;25.04;49.49;100566.59;5075576;28;20031;-78
2022/08/28 08:10:59;;;;;;;2.42;2.22;;;;;;;25.07;49.24;100554.28;5074659;28;20021;-78
2022/08/28 08:13:24;;;;;;;2.53;2.33;;;;;;;25.08;49.22;100555.91;5075486;28;20024;-78
2022/08/28 08:15:50;;;;;;;2.08;1.98;;;;;;;25.06;49.56;100547.16;5075446;28;20362;-78
2022/08/28 08:18:16;;;;;;;2.35;2.15;;;;;;;25.03;49.48;100542.28;5075371;28;20502;-78
2022/08/28 08:20:41;;;;;;;2.75;2.55;;;;;;;25.00;49.83;100548.28;5057459;28;20429;-78
2022/08/28 08:23:07;;;;;;;2.50;2.30;;;;;;;24.93;50.26;100552.13;5074830;28;20033;-78
2022/08/28 08:25:32;;;;;;;2.55;2.35;;;;;;;24.99;50.20;100535.72;5074955;28;20115;-78
2022/08/28 08:27:58;;;;;;;2.63;2.42;;;;;;;24.94;50.11;100533.84;5074968;28;20024;-78
2022/08/28 08:30:23;;;;;;;2.90;2.70;;;;;;;25.00;50.60;100527.22;5074874;28;20024;-78
2022/08/28 08:32:49;;;;;;;2.90;2.70;;;;;;;24.99;50.33;100522.88;5074680;28;20070;-78
2022/08/28 08:35:16;;;;;;;2.50;2.33;;;;;;;24.97;50.58;100516.84;5074529;28;20146;-78
2022/08/28 08:37:41;;;;;;;2.42;2.22;;;;;;;24.97;50.72;100513.31;5074561;28;20069;-78
2022/08/28 08:40:10;;;;;;;2.90;2.70;;;;;;;25.00;50.72;100515.47;5074365;28;20108;-78
2022/08/28 08:42:37;;;;;;;2.97;2.78;;;;;;;24.97;51.05;100527.78;5057356;28;20036;-78
2022/08/28 08:45:03;;;;;;;3.00;2.80;;;;;;;24.99;50.78;100522.03;5057170;28;20028;-78
2022/08/28 08:47:47;;;;;;;2.72;2.53;;;;;;;24.94;51.45;100528.38;5057056;28;20048;-78
2022/08/28 08:50:16;;;;;;;2.63;2.42;;;;;;;24.95;51.77;100523.72;5056797;28;20045;-78
2022/08/28 08:53:03;;;;;;;2.50;2.30;;;;;;;24.90;51.56;100517.16;5074605;28;20020;-78
2022/08/28 08:55:34;;;;;;;2.78;2.58;;;;;;;24.96;51.46;100520.69;5052576;28;20024;-78
2022/08/28 08:58:08;;;;;;;2.92;2.72;;;;;;;24.98;51.96;100523.16;5074102;28;20028;-78
2022/08/28 09:00:59;;;;;;;2.95;2.63;;;;;;;24.98;51.97;100520.41;5040253;28;20075;-78
2022/08/28 09:03:46;;;;;;;2.75;2.55;;;;;;;24.98;51.72;100515.75;5073266;28;20032;-78
2022/08/28 09:06:47;;;;;;;2.83;2.63;;;;;;;25.04;52.03;100511.91;5056993;28;20052;-78
2022/08/28 09:09:25;;;;;;;2.78;2.58;;;;;;;25.07;51.54;100516.78;5042921;28;20036;-78
2022/08/28 09:11:58;;;;;;;2.70;2.50;;;;;;;25.04;51.85;100500.13;5075358;28;20406;-78
2022/08/28 09:14:51;;;;;;;3.05;2.80;;;;;;;25.04;52.28;100509.19;5075270;28;20115;-78
2022/08/28 09:17:19;;;;;;;3.10;2.90;;;;;;;25.05;51.97;100493.59;5075707;28;20044;-78
2022/08/28 09:19:44;;;;;;;2.78;2.58;;;;;;;25.03;51.99;100499.34;5058028;28;20115;-78
2022/08/28 09:22:10;;;;;;;3.28;2.97;;;;;;;25.05;52.40;100493.59;5075245;28;20367;-78
2022/08/28 09:24:35;;;;;;;3.45;3.15;;;;;;;25.04;52.36;100489.19;5075001;28;20301;-78
2022/08/28 09:27:20;;;;;;;3.08;2.88;;;;;;;25.06;52.53;100487.00;5075429;28;20028;-78
2022/08/28 09:29:45;;;;;;;;;;;;;;;25.17;52.49;100482.31;5075909;28;20052;-78
2022/08/28 09:32:23;;;;;;;3.50;3.20;;;;;;;25.14;52.50;100489.16;5057053;28;20351;-78
2022/08/28 09:35:24;;;;;;;3.28;3.08;;;;;;;25.14;52.47;100486.41;5074402;28;20065;-78
2022/08/28 09:37:49;;;;;;;3.30;3.00;;;;;;;25.12;52.12;100485.88;5069567;28;20045;-78
2022/08/28 09:43:25;;;;;;;2.97;2.78;;;;;;;25.09;52.62;100491.91;5075152;28;20174;-78
2022/08/28 09:43:29;;;;;;;3.40;3.13;;;;;;;25.13;52.29;100487.53;5075202;28;20033;-78
2022/08/28 09:45:57;;;;;;;3.47;3.17;;;;;;;25.12;52.35;100485.88;5075056;28;20037;-78
2022/08/28 09:48:34;;;;;;;3.28;2.97;;;;;;;25.08;52.71;100487.56;5078395;28;20536;-75
2022/08/28 09:51:06;;;;;;;3.75;3.45;;;;;;;25.10;52.73;100488.09;5083559;28;20024;-75
2022/08/28 09:53:34;;;;;;;3.72;3.42;;;;;;;25.11;52.93;100489.69;5067272;28;20037;-75
2022/08/28 09:56:16;;;;;;;3.67;3.38;;;;;;;25.08;53.11;100484.81;5066737;28;20056;-75
2022/08/28 09:58:48;;;;;;;3.63;3.33;;;;;;;25.07;52.99;100474.97;5067192;28;20024;-75
2022/08/28 10:01:33;;;;;;;3.65;3.35;;;;;;;25.13;53.14;100476.59;5084788;28;20032;-75
2022/08/28 10:03:58;;;;;;;3.40;3.10;;;;;;;25.12;52.56;100485.88;5084490;28;20031;-75
2022/08/28 10:06:25;;;;;;;4.00;3.60;;;;;;;25.13;52.72;100482.06;5083304;28;20044;-75
2022/08/28 10:08:56;;;;;;;3.85;3.55;;;;;;;25.14;52.93;100485.59;5066112;28;20032;-75
2022/08/28 10:11:32;;;;;;;3.80;3.47;;;;;;;25.16;52.99;100486.94;5084719;28;20023;-75
2022/08/28 10:14:04;;;;;;;3.85;3.55;;;;;;;25.12;53.09;100494.09;5084528;28;20032;-75
2022/08/28 10:16:50;;;;;;;3.75;3.45;;;;;;;25.15;53.13;100503.63;5067183;28;20039;-75
2022/08/28 10:19:31;;;;;;;4.18;3.78;;;;;;;25.15;53.09;100490.78;5084277;28;20025;-75
2022/08/28 10:22:08;;;;;;;4.10;3.80;;;;;;;25.12;53.31;100496.81;5084116;28;20037;-75
2022/08/28 10:24:37;;;;;;;3.90;3.60;;;;;;;25.13;53.08;100498.47;5084014;28;20040;-75
2022/08/28 10:27:11;;;;;;;3.90;3.60;;;;;;;25.14;52.82;100491.88;5084313;28;20029;-75
2022/08/28 10:29:44;;;;;;;3.88;3.58;;;;;;;25.17;52.72;100498.72;5065608;28;20185;-75
2022/08/28 10:32:18;;;;;;;3.83;3.53;;;;;;;25.17;52.85;100494.06;5067050;28;20036;-73
2022/08/28 10:34:53;;;;;;;4.10;3.70;;;;;;;25.19;52.82;100491.03;5087068;28;20281;-73
2022/08/28 10:37:30;;;;;;;4.25;3.92;;;;;;;25.19;52.86;100496.50;5087665;28;20029;-73
2022/08/28 10:40:14;;;;;;;3.90;3.50;;;;;;;25.15;52.69;100496.25;5087891;28;20459;-73
2022/08/28 10:42:50;;;;;;;3.95;3.65;;;;;;;25.17;52.94;100493.25;5072156;28;20037;-73
2022/08/28 10:45:18;;;;;;;4.10;3.80;;;;;;;25.16;52.56;100497.88;5087994;28;20036;-73
2022/08/28 10:47:47;;;;;;;3.65;3.35;;;;;;;25.20;52.63;100498.13;5070241;28;20551;-73
2022/08/28 10:50:24;;;;;;;4.13;3.78;;;;;;;25.10;53.01;100501.75;5070348;28;20078;-73
2022/08/28 10:53:32;;;;;;;4.20;3.85;;;;;;;25.18;52.79;100495.69;5070053;28;20463;-73
2022/08/28 10:56:15;;;;;;;4.30;3.97;;;;;;;25.17;52.70;100505.00;5079537;28;20037;-73
2022/08/28 10:58:40;;;;;;;5.45;4.07;;;;;;;25.18;52.59;100500.34;5055445;28;20025;-73
2022/08/28 11:01:10;;;;;;;4.10;3.80;;;;;;;25.17;52.63;100496.78;5084893;28;20441;-73
2022/08/28 11:03:41;;;;;;;4.97;4.47;;;;;;;25.18;52.54;100498.44;5067588;28;20045;-73
2022/08/28 11:06:27;;;;;;;4.32;3.92;;;;;;;25.23;52.74;100492.94;5087167;28;20040;-73
2022/08/28 11:08:55;;;;;;;3.90;3.60;;;;;;;25.22;52.48;100496.75;5003755;28;20034;-73
2022/08/28 11:11:45;;;;;;;4.43;4.03;;;;;;;25.22;52.82;100493.22;5003889;28;20045;-73
2022/08/28 11:14:35;;;;;;;4.43;4.03;;;;;;;25.21;52.81;100497.03;4987122;28;20484;-73
2022/08/28 11:17:04;;;;;;;4.90;4.13;;;;;;;25.21;52.52;100491.56;4997460;28;20069;-73
2022/08/28 11:19:41;;;;;;;4.70;4.30;;;;;;;25.18;53.09;100489.41;5005368;28;20093;-73
2022/08/28 11:22:21;;;;;;;4.55;4.15;;;;;;;25.17;52.87;100482.31;5005070;28;20038;-73
2022/08/28 11:24:52;;;;;;;4.97;4.57;;;;;;;25.18;52.67;100479.28;4990921;28;20035;-73
2022/08/28 11:27:24;;;;;;;4.45;4.05;;;;;;;25.18;52.59;100482.03;4989762;28;20050;-73
2022/08/28 11:30:26;;;;;;;4.90;4.40;;;;;;;25.24;52.82;100489.09;5005706;28;20115;-73
2022/08/28 11:32:51;;;;;;;4.70;4.30;;;;;;;25.18;52.52;100487.50;5004596;28;20046;-73
2022/08/28 11:35:19;;;;;;;4.35;3.95;;;;;;;25.18;52.74;100489.41;4990992;28;20062;-73